Time;durP1;ratioP1;P1;durP2;ratioP2;P2;SDS_P1;SDS_P2;PMS_P1;PMS_P2;Temp;Humidity;BMP_temperature;BMP_pressure;BME280_temperature;BME280_humidity;BME280_pressure;Samples;Min_cycle;Max_cycle;Signal;HPM_P1;HPM_P2
2023/03/14 00:00:12;;;;;;;0.40;0.20;;;16.60;89.10;;;;;;4986010;28;47320;-80
2023/03/14 00:02:40;;;;;;;1.05;0.20;;;16.60;89.30;;;;;;4985863;28;45077;-80
2023/03/14 00:05:08;;;;;;;0.40;0.10;;;16.60;89.40;;;;;;4986006;28;45240;-80
2023/03/14 00:07:36;;;;;;;0.75;0.32;;;16.60;89.20;;;;;;4985703;28;45351;-80
2023/03/14 00:10:05;;;;;;;0.40;0.20;;;16.70;89.30;;;;;;4985686;28;47312;-79
2023/03/14 00:12:33;;;;;;;0.70;0.20;;;16.70;89.40;;;;;;4985773;28;45142;-79
2023/03/14 00:15:03;;;;;;;0.30;0.30;;;16.70;89.10;;;;;;4985573;28;45179;-80
2023/03/14 00:17:30;;;;;;;0.85;0.30;;;16.70;89.40;;;;;;4985950;28;45117;-79
2023/03/14 00:20:03;;;;;;;0.80;0.20;;;16.60;89.00;;;;;;4985384;28;46567;-80
2023/03/14 00:22:30;;;;;;;1.10;0.13;;;16.70;88.90;;;;;;4985542;28;45493;-79
2023/03/14 00:24:57;;;;;;;2.17;0.20;;;16.70;89.20;;;;;;4985753;28;45082;-79
2023/03/14 00:27:24;;;;;;;0.90;0.30;;;16.70;88.80;;;;;;4985778;28;45313;-79
2023/03/14 00:29:51;;;;;;;1.75;0.43;;;16.60;89.00;;;;;;4988139;28;47646;-79
2023/03/14 00:32:19;;;;;;;0.50;0.20;;;16.60;88.90;;;;;;4987581;28;45279;-80
2023/03/14 00:34:46;;;;;;;0.10;0.10;;;16.60;88.70;;;;;;4989119;28;45119;-79
2023/03/14 00:37:13;;;;;;;1.00;0.30;;;16.60;88.50;;;;;;4988964;28;45593;-79
2023/03/14 00:39:40;;;;;;;0.70;0.30;;;16.60;88.10;;;;;;4988530;28;45253;-79
2023/03/14 00:42:06;;;;;;;1.55;0.30;;;16.60;88.50;;;;;;4988855;28;45200;-78
2023/03/14 00:44:33;;;;;;;0.43;0.30;;;16.60;88.10;;;;;;4988836;28;45202;-79
2023/03/14 00:47:00;;;;;;;0.63;0.30;;;16.60;87.90;;;;;;4988993;28;45475;-78
2023/03/14 00:49:28;;;;;;;1.00;0.13;;;16.60;88.10;;;;;;4988587;28;45334;-78
2023/03/14 00:51:55;;;;;;;0.45;0.17;;;16.60;88.30;;;;;;4988528;28;45152;-78
2023/03/14 00:54:22;;;;;;;1.05;0.20;;;16.60;88.10;;;;;;4988607;28;45261;-79
2023/03/14 00:56:49;;;;;;;1.23;0.20;;;16.60;88.50;;;;;;4988402;28;45592;-79
2023/03/14 00:59:17;;;;;;;0.80;0.20;;;16.60;88.40;;;;;;4988727;28;46468;-78
2023/03/14 01:01:44;;;;;;;0.43;0.20;;;16.70;88.60;;;;;;4988709;28;45402;-78
2023/03/14 01:04:11;;;;;;;1.10;0.20;;;16.60;88.40;;;;;;4988377;28;45389;-78
2023/03/14 01:06:40;;;;;;;0.93;0.10;;;16.70;88.70;;;;;;4988574;28;45153;-78
2023/03/14 01:09:06;;;;;;;0.68;0.17;;;16.70;88.10;;;;;;4988371;28;46690;-78
2023/03/14 01:11:38;;;;;;;1.95;0.10;;;16.60;88.60;;;;;;4987994;28;46413;-78
2023/03/14 01:14:05;;;;;;;0.47;0.17;;;16.70;88.20;;;;;;4988242;28;45308;-78
2023/03/14 01:16:36;;;;;;;1.25;0.40;;;16.60;88.40;;;;;;4988385;28;45532;-78
2023/03/14 01:19:06;;;;;;;0.80;0.25;;;16.60;88.40;;;;;;4988080;28;45829;-78
2023/03/14 01:21:36;;;;;;;0.40;0.20;;;16.60;88.60;;;;;;4988092;28;45208;-77
2023/03/14 01:24:10;;;;;;;1.25;0.25;;;16.60;88.40;;;;;;4988543;28;45191;-77
2023/03/14 01:26:37;;;;;;;1.17;0.10;;;16.60;88.30;;;;;;4987883;28;45237;-77
2023/03/14 01:29:05;;;;;;;1.77;0.10;;;16.60;88.40;;;;;;4987523;28;45668;-77
2023/03/14 01:31:34;;;;;;;0.47;0.22;;;16.60;89.20;;;;;;4987996;28;45213;-77
2023/03/14 01:34:03;;;;;;;0.10;0.10;;;16.60;88.30;;;;;;4988069;28;45248;-77
2023/03/14 01:36:33;;;;;;;0.10;0.10;;;16.60;88.50;;;;;;4988028;28;45129;-77
2023/03/14 01:39:00;;;;;;;0.47;0.30;;;16.60;88.40;;;;;;4987703;28;45469;-77
2023/03/14 01:41:32;;;;;;;0.22;0.10;;;16.60;88.30;;;;;;4987655;28;45197;-77
2023/03/14 01:43:59;;;;;;;1.80;0.35;;;16.70;88.90;;;;;;4987130;28;45275;-77
2023/03/14 01:46:32;;;;;;;1.30;0.30;;;16.60;88.40;;;;;;4987622;28;45383;-77
2023/03/14 01:49:13;;;;;;;0.60;0.30;;;16.70;88.50;;;;;;4987470;28;46464;-77
2023/03/14 01:51:47;;;;;;;0.65;0.15;;;16.60;88.60;;;;;;4987347;28;45144;-77
2023/03/14 01:54:22;;;;;;;0.50;0.10;;;16.60;88.70;;;;;;4987677;28;45254;-76
2023/03/14 01:56:58;;;;;;;0.68;0.22;;;16.70;88.80;;;;;;4987564;28;45148;-76
2023/03/14 01:59:27;;;;;;;0.70;0.17;;;16.60;88.20;;;;;;4987171;28;46873;-76
2023/03/14 02:01:58;;;;;;;0.47;0.20;;;16.60;88.80;;;;;;4987537;28;45157;-76
2023/03/14 02:04:29;;;;;;;0.52;0.20;;;16.70;88.40;;;;;;4987512;28;45097;-76
2023/03/14 02:07:05;;;;;;;0.98;0.38;;;16.70;88.70;;;;;;4987386;28;45634;-76
2023/03/14 02:09:34;;;;;;;0.98;0.17;;;16.60;88.00;;;;;;4987256;28;46021;-76
2023/03/14 02:12:06;;;;;;;0.90;0.25;;;16.60;88.10;;;;;;4987002;28;45133;-76
2023/03/14 02:14:37;;;;;;;0.52;0.20;;;16.60;88.00;;;;;;4987459;28;45239;-76
2023/03/14 02:17:09;;;;;;;0.95;0.20;;;16.60;88.10;;;;;;4987484;28;45494;-76
2023/03/14 02:19:50;;;;;;;0.82;0.17;;;16.60;88.00;;;;;;4986841;28;45956;-75
2023/03/14 02:22:18;;;;;;;0.63;0.20;;;16.60;87.60;;;;;;4987184;28;45228;-76
2023/03/14 02:24:54;;;;;;;0.52;0.20;;;16.60;87.60;;;;;;4986986;28;45159;-75
2023/03/14 02:27:26;;;;;;;0.77;0.32;;;16.60;87.50;;;;;;4987341;28;45437;-76
2023/03/14 02:29:57;;;;;;;0.17;0.10;;;16.60;87.20;;;;;;4986618;28;46549;-76
2023/03/14 02:32:29;;;;;;;0.10;0.10;;;16.60;87.60;;;;;;4987047;28;45321;-75
2023/03/14 02:34:59;;;;;;;0.77;0.30;;;16.60;87.90;;;;;;4987070;28;45185;-75
2023/03/14 02:37:33;;;;;;;0.80;0.17;;;16.60;87.70;;;;;;4986739;28;45161;-76
2023/03/14 02:40:02;;;;;;;1.10;0.25;;;16.60;87.90;;;;;;4986712;28;46541;-76
2023/03/14 02:42:33;;;;;;;0.80;0.20;;;16.60;87.80;;;;;;4986872;28;45280;-75
2023/03/14 02:45:30;;;;;;;1.42;0.30;;;16.60;87.90;;;;;;4987039;28;45179;-75
2023/03/14 02:48:05;;;;;;;0.45;0.20;;;16.70;88.00;;;;;;4986669;28;45497;-75
2023/03/14 02:50:37;;;;;;;1.08;0.20;;;16.70;88.20;;;;;;4986820;28;45766;-75
2023/03/14 02:53:06;;;;;;;0.60;0.22;;;16.70;87.70;;;;;;4986671;28;45145;-75
2023/03/14 02:55:35;;;;;;;0.20;0.20;;;16.60;87.80;;;;;;4986174;28;45240;-75
2023/03/14 02:58:05;;;;;;;0.45;0.10;;;16.70;87.80;;;;;;4986644;28;45163;-75
2023/03/14 03:00:35;;;;;;;0.30;0.08;;;16.70;87.60;;;;;;4986270;28;46599;-75
2023/03/14 03:03:05;;;;;;;0.20;0.17;;;16.60;87.40;;;;;;4986276;28;45189;-75
2023/03/14 03:05:35;;;;;;;0.52;0.25;;;16.70;87.20;;;;;;4986792;28;45201;-75
2023/03/14 03:08:05;;;;;;;0.50;0.10;;;16.60;87.60;;;;;;4986755;28;45132;-75
2023/03/14 03:10:35;;;;;;;1.10;0.30;;;16.60;87.50;;;;;;4986377;28;45620;-75
2023/03/14 03:13:05;;;;;;;0.60;0.20;;;16.60;87.10;;;;;;4986260;28;45318;-75
2023/03/14 03:15:35;;;;;;;0.85;0.20;;;16.60;87.30;;;;;;4986214;28;45396;-75
2023/03/14 03:18:06;;;;;;;0.20;0.10;;;16.60;87.50;;;;;;4986314;28;45490;-75
2023/03/14 03:20:35;;;;;;;0.75;0.10;;;16.60;87.30;;;;;;4985973;28;45726;-75
2023/03/14 03:23:04;;;;;;;1.05;0.22;;;16.60;87.00;;;;;;4986409;28;45156;-75
2023/03/14 03:25:32;;;;;;;0.52;0.10;;;16.60;87.00;;;;;;4986334;28;45220;-75
2023/03/14 03:27:59;;;;;;;0.85;0.40;;;16.60;87.10;;;;;;4986367;28;45168;-75
2023/03/14 03:30:27;;;;;;;1.00;0.10;;;16.60;87.30;;;;;;4986206;28;48217;-75
2023/03/14 03:32:57;;;;;;;0.45;0.10;;;16.60;87.50;;;;;;4986207;28;45172;-75
2023/03/14 03:35:29;;;;;;;0.43;0.10;;;16.60;87.30;;;;;;4986400;28;45150;-75
2023/03/14 03:37:56;;;;;;;0.75;0.28;;;16.70;87.70;;;;;;4986448;28;45213;-75
2023/03/14 03:40:25;;;;;;;0.40;0.22;;;16.60;87.80;;;;;;4985249;28;46614;-75
2023/03/14 03:42:53;;;;;;;0.38;0.10;;;16.70;87.90;;;;;;4986420;28;45216;-74
2023/03/14 03:45:21;;;;;;;0.63;0.20;;;16.70;87.70;;;;;;4985992;28;45246;-74
2023/03/14 03:47:48;;;;;;;1.05;0.22;;;16.70;87.80;;;;;;4986014;28;45296;-75
2023/03/14 03:50:17;;;;;;;0.70;0.10;;;16.70;87.90;;;;;;4985904;28;46731;-74
2023/03/14 03:52:45;;;;;;;0.20;0.03;;;16.70;87.50;;;;;;4985952;28;45714;-74
2023/03/14 03:55:13;;;;;;;1.75;0.32;;;16.70;87.60;;;;;;4985717;28;45252;-74
2023/03/14 03:57:40;;;;;;;0.80;0.30;;;16.70;87.50;;;;;;4985858;28;45512;-74
2023/03/14 04:00:11;;;;;;;0.88;0.32;;;16.70;87.70;;;;;;4986179;28;47323;-74
2023/03/14 04:02:38;;;;;;;1.35;0.30;;;16.60;87.30;;;;;;4986039;28;46374;-74
2023/03/14 04:05:05;;;;;;;0.32;0.10;;;16.60;87.40;;;;;;4989010;28;45216;-74
2023/03/14 04:07:33;;;;;;;0.20;0.15;;;16.60;87.30;;;;;;4989410;28;45149;-74
2023/03/14 04:10:01;;;;;;;0.63;0.20;;;16.60;87.10;;;;;;4989148;28;47254;-74
2023/03/14 04:12:28;;;;;;;0.73;0.10;;;16.60;87.30;;;;;;4989351;28;45221;-74
2023/03/14 04:14:55;;;;;;;1.02;0.55;;;16.60;87.20;;;;;;4988971;28;45162;-74
2023/03/14 04:17:22;;;;;;;1.13;0.15;;;16.60;87.30;;;;;;4989519;28;45114;-74
2023/03/14 04:19:51;;;;;;;0.30;0.20;;;16.60;87.10;;;;;;4988733;28;46406;-74
2023/03/14 04:22:17;;;;;;;0.85;0.40;;;16.60;87.10;;;;;;4988748;28;45598;-74
2023/03/14 04:24:44;;;;;;;0.28;0.10;;;16.60;87.00;;;;;;4989151;28;45252;-74
2023/03/14 04:27:14;;;;;;;1.15;0.25;;;16.60;87.50;;;;;;4989154;28;45291;-74
2023/03/14 04:29:41;;;;;;;0.77;0.30;;;16.60;87.10;;;;;;4988938;28;48761;-74
2023/03/14 04:32:07;;;;;;;0.75;0.30;;;16.70;87.40;;;;;;4988919;28;45317;-74
2023/03/14 04:34:34;;;;;;;0.93;0.20;;;16.60;87.10;;;;;;4988859;28;45283;-74
2023/03/14 04:37:01;;;;;;;0.65;0.13;;;16.60;87.20;;;;;;4989029;28;45047;-74
2023/03/14 04:39:28;;;;;;;1.70;0.30;;;16.70;87.10;;;;;;4988453;28;45227;-74
2023/03/14 04:41:55;;;;;;;0.40;0.20;;;16.70;87.30;;;;;;4988803;28;45179;-74
2023/03/14 04:44:23;;;;;;;1.45;0.20;;;16.70;88.00;;;;;;4988883;28;45157;-73
2023/03/14 04:46:50;;;;;;;1.23;0.35;;;16.60;86.80;;;;;;4988979;28;45520;-74
2023/03/14 04:49:17;;;;;;;0.73;0.20;;;16.60;87.10;;;;;;4988559;28;45506;-74
2023/03/14 04:51:43;;;;;;;0.22;0.10;;;16.60;86.80;;;;;;4988581;28;45147;-74
2023/03/14 04:54:10;;;;;;;0.30;0.10;;;16.60;86.90;;;;;;4988530;28;45172;-73
2023/03/14 04:56:37;;;;;;;0.50;0.17;;;16.60;86.50;;;;;;4988947;28;45212;-74
2023/03/14 04:59:04;;;;;;;0.28;0.10;;;16.60;86.60;;;;;;4988265;28;45455;-73
2023/03/14 05:01:32;;;;;;;0.95;0.43;;;16.60;86.30;;;;;;4988209;28;45918;-73
2023/03/14 05:03:59;;;;;;;0.52;0.10;;;16.60;86.30;;;;;;4988681;28;45137;-74
2023/03/14 05:06:26;;;;;;;0.30;0.10;;;16.60;86.30;;;;;;4988398;28;45214;-73
2023/03/14 05:08:52;;;;;;;0.80;0.20;;;16.60;86.30;;;;;;4988636;28;47312;-73
2023/03/14 05:11:19;;;;;;;0.25;0.10;;;16.60;86.30;;;;;;4988267;28;45231;-73
2023/03/14 05:13:46;;;;;;;0.30;0.20;;;16.60;86.30;;;;;;4988321;28;45236;-73
2023/03/14 05:16:13;;;;;;;0.13;0.03;;;16.60;86.10;;;;;;4988355;28;45106;-73
2023/03/14 05:18:41;;;;;;;0.30;0.10;;;16.60;86.50;;;;;;4987881;28;46392;-73
2023/03/14 05:21:08;;;;;;;0.10;0.03;;;16.60;86.50;;;;;;4988206;28;45243;-73
2023/03/14 05:23:35;;;;;;;0.10;0.10;;;16.60;86.50;;;;;;4988254;28;45217;-73
2023/03/14 05:26:01;;;;;;;0.10;0.10;;;16.60;86.90;;;;;;4988838;28;45390;-73
2023/03/14 05:28:28;;;;;;;0.47;0.10;;;16.70;86.20;;;;;;4988105;28;47479;-73
2023/03/14 05:30:55;;;;;;;0.10;0.10;;;16.70;86.40;;;;;;4987824;28;45080;-73
2023/03/14 05:33:22;;;;;;;0.03;0.00;;;16.60;86.10;;;;;;4988114;28;45240;-73
2023/03/14 05:35:50;;;;;;;0.00;0.00;;;16.70;86.30;;;;;;4987832;28;45210;-73
2023/03/14 05:38:17;;;;;;;0.98;0.15;;;16.70;86.20;;;;;;4987964;28;46634;-73
2023/03/14 05:40:45;;;;;;;0.00;0.00;;;16.60;86.40;;;;;;4987483;28;45460;-73
2023/03/14 05:43:12;;;;;;;0.03;0.00;;;16.70;86.10;;;;;;4988025;28;45215;-73
2023/03/14 05:45:38;;;;;;;0.25;0.00;;;16.70;85.60;;;;;;4987988;28;45252;-73
2023/03/14 05:48:06;;;;;;;0.60;0.10;;;16.60;85.60;;;;;;4987524;28;47567;-73
2023/03/14 05:50:32;;;;;;;0.70;0.10;;;16.60;85.90;;;;;;4987753;28;45233;-73
2023/03/14 05:53:01;;;;;;;0.40;0.00;;;16.60;86.70;;;;;;4987817;28;45139;-73
2023/03/14 05:55:28;;;;;;;0.10;0.08;;;16.60;85.60;;;;;;4987714;28;45680;-73
2023/03/14 05:57:55;;;;;;;0.15;0.00;;;16.60;85.70;;;;;;4987503;28;47345;-73
2023/03/14 06:00:23;;;;;;;0.60;0.08;;;16.60;85.50;;;;;;4987303;28;45232;-73
2023/03/14 06:02:50;;;;;;;0.20;0.10;;;16.60;85.60;;;;;;4987742;28;45157;-73
2023/03/14 06:05:17;;;;;;;0.10;0.00;;;16.60;85.60;;;;;;4987467;28;45361;-73
2023/03/14 06:07:44;;;;;;;0.25;0.10;;;16.60;85.20;;;;;;4987265;28;46591;-73
2023/03/14 06:10:12;;;;;;;0.00;0.00;;;16.60;86.20;;;;;;4987642;28;45205;-73
2023/03/14 06:12:39;;;;;;;0.00;0.00;;;16.60;86.10;;;;;;4987210;28;45124;-72
2023/03/14 06:15:07;;;;;;;0.00;0.00;;;16.50;83.70;;;;;;4987360;28;45333;-72
2023/03/14 06:17:34;;;;;;;0.30;0.00;;;16.50;83.80;;;;;;4986897;28;48054;-73
2023/03/14 06:20:01;;;;;;;0.10;0.00;;;16.50;83.80;;;;;;4987028;28;45219;-73
2023/03/14 06:22:28;;;;;;;0.75;0.20;;;16.50;83.90;;;;;;4987347;28;45074;-73
2023/03/14 06:24:54;;;;;;;0.00;0.00;;;16.50;84.10;;;;;;4987485;28;45070;-73
2023/03/14 06:27:23;;;;;;;0.10;0.03;;;16.50;83.90;;;;;;4986898;28;46649;-73
2023/03/14 06:29:49;;;;;;;0.10;0.10;;;16.50;83.60;;;;;;4986396;28;45166;-73
2023/03/14 06:32:16;;;;;;;0.35;0.00;;;16.50;83.80;;;;;;4987136;28;45173;-73
2023/03/14 06:34:43;;;;;;;1.05;0.10;;;16.50;83.40;;;;;;4987099;28;45569;-73
2023/03/14 06:37:10;;;;;;;0.77;0.00;;;16.50;83.50;;;;;;4986654;28;46257;-73
2023/03/14 06:39:38;;;;;;;0.70;0.00;;;16.50;83.30;;;;;;4986872;28;45246;-73
2023/03/14 06:42:05;;;;;;;0.40;0.05;;;16.50;83.10;;;;;;4986904;28;45239;-73
2023/03/14 06:44:33;;;;;;;0.60;0.10;;;16.50;83.50;;;;;;4987064;28;45172;-73
2023/03/14 06:47:00;;;;;;;0.75;0.00;;;16.50;83.50;;;;;;4987110;28;47084;-74
2023/03/14 06:49:27;;;;;;;0.57;0.10;;;16.50;83.60;;;;;;4987039;28;45330;-73
2023/03/14 06:51:54;;;;;;;2.72;0.00;;;16.50;83.30;;;;;;4986934;28;45169;-73
2023/03/14 06:54:21;;;;;;;0.20;0.00;;;16.50;83.70;;;;;;4986817;28;45466;-72
2023/03/14 06:56:47;;;;;;;0.05;0.00;;;16.50;84.20;;;;;;4986660;28;47559;-73
2023/03/14 06:59:14;;;;;;;0.20;0.10;;;16.50;84.20;;;;;;4986554;28;45188;-73
2023/03/14 07:01:43;;;;;;;0.10;0.10;;;16.50;84.40;;;;;;4986511;28;45260;-73
2023/03/14 07:04:10;;;;;;;0.03;0.00;;;16.50;84.40;;;;;;4987106;28;45221;-73
2023/03/14 07:06:39;;;;;;;0.30;0.10;;;16.50;84.70;;;;;;4986619;28;46879;-72
2023/03/14 07:09:06;;;;;;;3.53;0.20;;;16.50;84.90;;;;;;4986281;28;45887;-72
2023/03/14 07:11:33;;;;;;;0.00;0.00;;;16.50;84.70;;;;;;4986823;28;45212;-73
2023/03/14 07:14:00;;;;;;;0.28;0.03;;;16.50;85.00;;;;;;4986415;28;45458;-73
2023/03/14 07:16:28;;;;;;;0.00;0.00;;;16.50;85.20;;;;;;4986164;28;46608;-73
2023/03/14 07:18:56;;;;;;;0.00;0.00;;;16.60;85.40;;;;;;4986166;28;45157;-73
2023/03/14 07:21:24;;;;;;;0.60;0.00;;;16.60;85.60;;;;;;4986283;28;45339;-73
2023/03/14 07:23:50;;;;;;;0.00;0.00;;;16.60;85.50;;;;;;4986456;28;45250;-73
2023/03/14 07:26:17;;;;;;;0.13;0.03;;;16.60;85.60;;;;;;4985970;28;45269;-73
2023/03/14 07:28:44;;;;;;;0.38;0.00;;;16.60;85.50;;;;;;4986343;28;45227;-73
2023/03/14 07:31:11;;;;;;;0.15;0.00;;;16.60;85.70;;;;;;4986166;28;45306;-73
2023/03/14 07:33:38;;;;;;;0.00;0.00;;;16.60;85.90;;;;;;4986633;28;45508;-73
2023/03/14 07:36:07;;;;;;;1.17;0.08;;;16.60;85.50;;;;;;4985898;28;45609;-73
2023/03/14 07:38:34;;;;;;;0.03;0.00;;;16.60;85.70;;;;;;4986202;28;45132;-73
2023/03/14 07:41:01;;;;;;;0.00;0.00;;;16.70;85.70;;;;;;4986179;28;45251;-73
2023/03/14 07:43:28;;;;;;;0.00;0.00;;;16.60;85.80;;;;;;4993236;28;45313;-73
2023/03/14 07:45:55;;;;;;;1.38;0.00;;;16.60;85.40;;;;;;4989985;28;46966;-73
2023/03/14 07:48:24;;;;;;;0.00;0.00;;;16.60;85.90;;;;;;4989941;28;45130;-73
2023/03/14 07:50:52;;;;;;;0.00;0.00;;;16.60;85.50;;;;;;4989428;28;45217;-72
2023/03/14 07:53:20;;;;;;;0.57;0.08;;;16.60;85.80;;;;;;4989744;28;45240;-73
2023/03/14 07:55:47;;;;;;;0.00;0.00;;;16.60;85.60;;;;;;4989156;28;46841;-73
2023/03/14 07:58:14;;;;;;;0.00;0.00;;;16.60;85.60;;;;;;4989436;28;45298;-72
2023/03/14 08:00:41;;;;;;;0.10;0.03;;;16.60;85.90;;;;;;4989349;28;45228;-72
2023/03/14 08:03:08;;;;;;;0.05;0.05;;;16.60;85.40;;;;;;4989272;28;45402;-72
2023/03/14 08:05:36;;;;;;;0.00;0.00;;;16.70;85.60;;;;;;4989277;28;47268;-76
2023/03/14 08:08:03;;;;;;;2.65;0.08;;;16.60;85.40;;;;;;4989254;28;45125;-72
2023/03/14 08:10:32;;;;;;;0.00;0.00;;;16.70;85.40;;;;;;4989421;28;45158;-72
2023/03/14 08:13:00;;;;;;;1.88;0.10;;;16.70;85.10;;;;;;4989171;28;45395;-72
2023/03/14 08:15:29;;;;;;;0.20;0.10;;;16.70;85.20;;;;;;4988669;28;46273;-76
2023/03/14 08:17:56;;;;;;;5.50;0.10;;;16.70;85.30;;;;;;4989043;28;45223;-73
2023/03/14 08:20:25;;;;;;;0.20;0.10;;;16.70;82.30;;;;;;4989426;28;45321;-72
2023/03/14 08:22:52;;;;;;;0.05;0.00;;;16.80;80.50;;;;;;4989414;28;45446;-72
2023/03/14 08:25:19;;;;;;;0.20;0.10;;;16.80;80.10;;;;;;4988795;28;47389;-72
2023/03/14 08:27:47;;;;;;;0.43;0.17;;;16.80;80.10;;;;;;4988823;28;45223;-72
2023/03/14 08:30:16;;;;;;;0.13;0.10;;;16.90;80.10;;;;;;4989406;28;45200;-72
2023/03/14 08:32:43;;;;;;;0.00;0.00;;;16.90;79.80;;;;;;4988847;28;45625;-72
2023/03/14 08:35:11;;;;;;;0.00;0.00;;;16.90;79.50;;;;;;4988536;28;48375;-72
2023/03/14 08:37:38;;;;;;;0.25;0.05;;;16.90;79.40;;;;;;4991828;28;45418;-72
2023/03/14 08:40:08;;;;;;;0.10;0.00;;;16.90;79.40;;;;;;4988573;28;45250;-72
2023/03/14 08:42:35;;;;;;;0.00;0.00;;;16.90;79.40;;;;;;4989097;28;45201;-72
2023/03/14 08:45:03;;;;;;;0.30;0.10;;;16.90;79.30;;;;;;4988514;28;46434;-72
2023/03/14 08:47:30;;;;;;;0.55;0.20;;;16.90;79.20;;;;;;4988399;28;45934;-72
2023/03/14 08:49:57;;;;;;;0.20;0.10;;;16.90;79.10;;;;;;4988947;28;45188;-72
2023/03/14 08:52:24;;;;;;;0.30;0.00;;;16.90;79.00;;;;;;4988372;28;45141;-72
2023/03/14 08:54:51;;;;;;;0.03;0.03;;;16.90;78.90;;;;;;4988363;28;46773;-72
2023/03/14 08:57:17;;;;;;;0.20;0.10;;;16.90;78.90;;;;;;4988711;28;45074;-72
2023/03/14 08:59:44;;;;;;;0.00;0.00;;;16.90;78.80;;;;;;4988360;28;45172;-72
2023/03/14 09:02:13;;;;;;;1.08;0.13;;;16.90;78.70;;;;;;4988336;28;45245;-72
2023/03/14 09:04:40;;;;;;;0.00;0.00;;;16.90;78.50;;;;;;4988162;28;47502;-72
2023/03/14 09:07:07;;;;;;;0.45;0.10;;;16.90;78.60;;;;;;4988662;28;45276;-72
2023/03/14 09:09:33;;;;;;;0.00;0.00;;;16.90;78.40;;;;;;4988684;28;45295;-72
2023/03/14 09:12:00;;;;;;;0.28;0.00;;;16.90;78.40;;;;;;4988456;28;45405;-72
2023/03/14 09:14:27;;;;;;;0.10;0.10;;;16.90;78.40;;;;;;4988017;28;46799;-72
2023/03/14 09:16:54;;;;;;;0.10;0.03;;;16.90;78.40;;;;;;4987680;28;46124;-72
2023/03/14 09:19:22;;;;;;;0.08;0.00;;;16.90;78.60;;;;;;4988470;28;45093;-72
2023/03/14 09:21:49;;;;;;;0.13;0.00;;;16.90;78.60;;;;;;4988363;28;45222;-72
2023/03/14 09:24:16;;;;;;;1.35;0.10;;;16.80;78.50;;;;;;4987741;28;45489;-72
2023/03/14 09:26:44;;;;;;;0.20;0.10;;;16.80;78.40;;;;;;4988003;28;45132;-72
2023/03/14 09:29:11;;;;;;;0.20;0.00;;;16.80;78.30;;;;;;4988091;28;45137;-72
2023/03/14 09:31:38;;;;;;;0.00;0.00;;;16.80;78.20;;;;;;4988314;28;45521;-72
2023/03/14 09:34:05;;;;;;;0.03;0.03;;;16.80;78.20;;;;;;4987962;28;47041;-72
2023/03/14 09:36:33;;;;;;;0.00;0.00;;;16.80;78.10;;;;;;4987584;28;45322;-72
2023/03/14 09:39:00;;;;;;;0.10;0.10;;;16.80;78.00;;;;;;4987978;28;45150;-72
2023/03/14 09:41:31;;;;;;;0.20;0.10;;;16.80;77.90;;;;;;4987590;28;45442;-72
2023/03/14 09:44:05;;;;;;;0.10;0.10;;;16.80;77.90;;;;;;4987448;28;46817;-71
2023/03/14 09:46:36;;;;;;;0.52;0.03;;;16.80;77.80;;;;;;4987499;28;45165;-71
2023/03/14 09:49:03;;;;;;;0.10;0.10;;;16.80;77.70;;;;;;4988043;28;45078;-71
2023/03/14 09:51:31;;;;;;;0.13;0.10;;;16.80;77.50;;;;;;4987676;28;45580;-71
2023/03/14 09:54:00;;;;;;;0.10;0.10;;;16.80;77.50;;;;;;4987587;28;45407;-71
2023/03/14 09:56:32;;;;;;;0.05;0.00;;;16.80;77.50;;;;;;4987250;28;45423;-71
2023/03/14 09:59:01;;;;;;;0.00;0.00;;;16.80;77.50;;;;;;4987824;28;45199;-71
2023/03/14 10:01:29;;;;;;;0.32;0.10;;;16.80;77.30;;;;;;4987235;28;45457;-71
2023/03/14 10:03:58;;;;;;;0.15;0.10;;;16.80;77.30;;;;;;4986218;28;45260;-71
2023/03/14 10:06:28;;;;;;;0.80;0.17;;;16.80;77.10;;;;;;4986944;28;45263;-72
2023/03/14 10:08:56;;;;;;;0.40;0.10;;;16.80;77.10;;;;;;4987226;28;45406;-71
2023/03/14 10:11:25;;;;;;;0.43;0.00;;;16.80;77.00;;;;;;4986997;28;45182;-71
2023/03/14 10:14:05;;;;;;;0.00;0.00;;;16.80;76.80;;;;;;4986070;28;45396;-72
2023/03/14 10:16:34;;;;;;;0.10;0.10;;;16.80;76.70;;;;;;4985858;28;45351;-72
2023/03/14 10:19:06;;;;;;;0.22;0.08;;;16.90;76.50;;;;;;4986861;28;45267;-72
2023/03/14 10:21:39;;;;;;;0.30;0.10;;;16.90;76.10;;;;;;4986952;28;45306;-72
2023/03/14 10:24:10;;;;;;;0.00;0.00;;;16.90;75.90;;;;;;4986970;28;46274;-72
2023/03/14 10:26:39;;;;;;;0.35;0.10;;;16.90;76.00;;;;;;4987003;28;45317;-72
2023/03/14 10:29:12;;;;;;;0.40;0.00;;;16.90;75.90;;;;;;4986368;28;45366;-71
2023/03/14 10:31:49;;;;;;;0.00;0.00;;;16.90;75.70;;;;;;4986470;28;45105;-72
2023/03/14 10:34:18;;;;;;;0.20;0.10;;;16.90;75.60;;;;;;4983233;28;45661;-72
2023/03/14 10:36:45;;;;;;;0.05;0.03;;;16.90;75.50;;;;;;4997352;28;45920;-72
2023/03/14 10:39:34;;;;;;;0.30;0.00;;;16.90;75.60;;;;;;4986203;28;45181;-71
2023/03/14 10:42:13;;;;;;;0.10;0.10;;;16.90;75.60;;;;;;4985943;28;45371;-71
2023/03/14 10:44:40;;;;;;;0.40;0.10;;;16.90;75.50;;;;;;4986038;28;45424;-71
2023/03/14 10:47:15;;;;;;;0.73;0.10;;;16.90;75.60;;;;;;4985823;28;45311;-72
2023/03/14 10:49:42;;;;;;;0.32;0.20;;;16.90;75.50;;;;;;4985670;28;45486;-72
2023/03/14 10:52:16;;;;;;;0.00;0.00;;;16.90;75.60;;;;;;4985758;28;45286;-71
2023/03/14 10:54:47;;;;;;;0.00;0.00;;;16.90;75.60;;;;;;4985396;28;47375;-71
2023/03/14 10:57:15;;;;;;;1.38;0.30;;;16.90;75.60;;;;;;4978521;28;45459;-71
2023/03/14 10:59:44;;;;;;;0.00;0.00;;;16.90;75.50;;;;;;4986181;28;45257;-71
2023/03/14 11:02:37;;;;;;;0.43;0.10;;;16.90;75.60;;;;;;4986270;28;45405;-71
2023/03/14 11:05:16;;;;;;;0.32;0.13;;;16.90;75.50;;;;;;4985776;28;45283;-71
2023/03/14 11:07:44;;;;;;;0.70;0.00;;;16.90;75.60;;;;;;4986141;28;45165;-71
2023/03/14 11:10:20;;;;;;;0.45;0.10;;;16.90;75.60;;;;;;4986548;28;45069;-71
2023/03/14 11:13:02;;;;;;;0.00;0.00;;;16.90;75.60;;;;;;4986392;28;45424;-71
2023/03/14 11:15:35;;;;;;;0.00;0.00;;;16.90;75.50;;;;;;4986078;28;46090;-71
2023/03/14 11:18:36;;;;;;;0.28;0.10;;;16.90;75.60;;;;;;4983430;28;45137;-71
2023/03/14 11:21:10;;;;;;;0.80;0.10;;;16.90;75.50;;;;;;4986452;28;45108;-72
2023/03/14 11:23:49;;;;;;;0.10;0.10;;;16.90;75.20;;;;;;4986610;28;45381;-72
2023/03/14 11:26:27;;;;;;;0.08;0.08;;;16.90;75.40;;;;;;4985855;28;46410;-71
2023/03/14 11:28:59;;;;;;;0.30;0.10;;;16.90;75.10;;;;;;4986034;28;45382;-71
2023/03/14 11:31:28;;;;;;;0.80;0.20;;;16.90;75.00;;;;;;4985897;28;45271;-72
2023/03/14 11:34:01;;;;;;;0.57;0.10;;;16.90;74.80;;;;;;4986550;28;45450;-71
2023/03/14 11:36:32;;;;;;;0.10;0.08;;;16.90;75.20;;;;;;4985819;28;48369;-71
2023/03/14 11:39:00;;;;;;;0.05;0.05;;;16.80;74.20;;;;;;4985941;28;45157;-72
2023/03/14 11:41:31;;;;;;;0.10;0.00;;;16.80;74.20;;;;;;4985771;28;45319;-72
2023/03/14 11:44:02;;;;;;;3.70;0.17;;;16.70;74.70;;;;;;4986628;28;45296;-72
2023/03/14 11:46:33;;;;;;;0.22;0.13;;;16.70;75.40;;;;;;4985945;28;45498;-71
2023/03/14 11:49:04;;;;;;;0.43;0.10;;;16.70;75.40;;;;;;4986263;28;45261;-71
2023/03/14 11:51:35;;;;;;;0.52;0.20;;;16.70;75.40;;;;;;4992273;28;45328;-71
2023/03/14 11:54:12;;;;;;;0.60;0.47;;;16.60;75.30;;;;;;4984917;28;45572;-71
2023/03/14 11:56:47;;;;;;;0.98;0.10;;;16.60;75.30;;;;;;4985297;28;46264;-71
2023/03/14 11:59:18;;;;;;;1.75;0.10;;;16.70;75.40;;;;;;4984007;28;45348;-72
2023/03/14 12:01:58;;;;;;;0.60;0.20;;;16.70;75.00;;;;;;4985386;28;45537;-72
2023/03/14 12:04:41;;;;;;;0.52;0.13;;;16.70;74.90;;;;;;4985711;28;45374;-72
2023/03/14 12:07:15;;;;;;;0.30;0.00;;;16.70;74.60;;;;;;4985489;28;46619;-72
2023/03/14 12:09:42;;;;;;;0.25;0.10;;;16.70;74.20;;;;;;4985316;28;45698;-71
2023/03/14 12:12:15;;;;;;;0.52;0.10;;;16.70;74.20;;;;;;4985303;28;45363;-72
2023/03/14 12:14:53;;;;;;;0.65;0.13;;;16.70;74.10;;;;;;4985247;28;45507;-72
2023/03/14 12:17:22;;;;;;;0.35;0.10;;;16.70;74.20;;;;;;4986349;28;46925;-71
2023/03/14 12:20:00;;;;;;;0.88;0.15;;;16.70;74.00;;;;;;4995666;28;45658;-71
2023/03/14 12:22:30;;;;;;;0.28;0.10;;;16.70;73.80;;;;;;4985532;28;45440;-71
2023/03/14 12:25:02;;;;;;;0.20;0.10;;;16.70;73.30;;;;;;4985474;28;45172;-71
2023/03/14 12:28:04;;;;;;;0.93;0.28;;;16.70;73.30;;;;;;4985749;28;46323;-71
2023/03/14 12:30:34;;;;;;;0.47;0.13;;;16.60;73.10;;;;;;4969350;28;45250;-71
2023/03/14 12:33:28;;;;;;;0.15;0.10;;;16.60;73.60;;;;;;4987711;28;45401;-71
2023/03/14 12:36:16;;;;;;;0.82;0.00;;;16.60;73.50;;;;;;4954019;28;45440;-71
2023/03/14 12:39:05;;;;;;;0.55;0.13;;;16.60;73.30;;;;;;4948076;28;45369;-71
2023/03/14 12:41:40;;;;;;;1.30;0.20;;;16.60;73.30;;;;;;4981539;28;45574;-71
2023/03/14 12:44:45;;;;;;;0.57;0.25;;;16.60;73.60;;;;;;4988492;28;45172;-71
2023/03/14 12:47:48;;;;;;;0.80;0.10;;;16.60;73.20;;;;;;4988663;28;45342;-71
2023/03/14 12:50:35;;;;;;;0.10;0.10;;;16.60;73.10;;;;;;4988054;28;46626;-71
2023/03/14 12:53:38;;;;;;;1.65;0.10;;;16.60;73.10;;;;;;4987900;28;45236;-71
2023/03/14 12:56:16;;;;;;;1.60;0.30;;;16.60;73.10;;;;;;4987926;28;45364;-71
2023/03/14 12:58:48;;;;;;;1.23;0.20;;;16.60;72.80;;;;;;4988173;28;45360;-71
2023/03/14 13:01:18;;;;;;;0.57;0.30;;;16.60;72.90;;;;;;4967527;28;46333;-71